createdAt,value
2023-02-25T00:01:29.109Z,31.52
2023-02-25T00:03:57.077Z,30.38
2023-02-25T00:06:24.866Z,25.10
2023-02-25T00:08:52.550Z,33.85
2023-02-25T00:11:20.347Z,31.90
2023-02-25T00:13:47.448Z,28.92
2023-02-25T00:16:14.957Z,24.45
2023-02-25T00:18:46.734Z,24.92
2023-02-25T00:21:16.140Z,32.63
2023-02-25T00:23:46.868Z,27.95
2023-02-25T00:26:14.811Z,28.75
2023-02-25T00:28:41.885Z,17.83
2023-02-25T00:31:15.530Z,34.28
2023-02-25T00:33:42.721Z,27.08
2023-02-25T00:36:12.658Z,29.98
2023-02-25T00:38:39.612Z,26.83
2023-02-25T00:41:13.918Z,23.92
2023-02-25T00:43:42.386Z,30.23
2023-02-25T00:46:12.717Z,26.33
2023-02-25T00:48:40.495Z,23.25
2023-02-25T00:51:22.090Z,20.42
2023-02-25T00:53:49.111Z,25.10
2023-02-25T00:56:17.232Z,27.17
2023-02-25T00:58:45.465Z,30.70
2023-02-25T01:01:27.702Z,22.83
2023-02-25T01:03:56.596Z,22.05
2023-02-25T01:06:28.059Z,26.27
2023-02-25T01:08:55.786Z,24.13
2023-02-25T01:11:29.484Z,25.60
2023-02-25T01:14:01.743Z,22.98
2023-02-25T01:16:30.527Z,24.67
2023-02-25T01:19:00.642Z,28.23
2023-02-25T01:21:31.029Z,18.73
2023-02-25T01:24:01.184Z,23.48
2023-02-25T01:26:30.355Z,17.65
2023-02-25T01:28:57.404Z,26.08
2023-02-25T01:31:29.338Z,36.55
2023-02-25T01:34:01.108Z,23.08
2023-02-25T01:36:29.776Z,21.88
2023-02-25T01:38:57.703Z,22.27
2023-02-25T01:41:25.997Z,23.55
2023-02-25T01:44:12.561Z,20.48
2023-02-25T01:46:41.447Z,25.25
2023-02-25T01:49:14.847Z,27.27
2023-02-25T01:51:43.707Z,29.98
2023-02-25T01:54:12.432Z,27.83
2023-02-25T01:56:42.549Z,19.83
2023-02-25T01:59:12.245Z,24.75
2023-02-25T02:01:40.640Z,18.88
2023-02-25T02:04:10.697Z,20.23
2023-02-25T02:06:40.641Z,28.55
2023-02-25T02:09:13.361Z,23.40
2023-02-25T02:11:40.586Z,31.52
2023-02-25T02:14:11.278Z,24.52
2023-02-25T02:16:47.125Z,22.73
2023-02-25T02:19:23.182Z,16.63
2023-02-25T02:22:00.568Z,27.25
2023-02-25T02:24:55.725Z,18.80
2023-02-25T02:27:30.445Z,19.15
2023-02-25T02:29:57.199Z,23.50
2023-02-25T02:32:40.317Z,19.38
2023-02-25T02:37:58.729Z,26.48
2023-02-25T02:40:53.740Z,31.73
2023-02-25T02:43:38.908Z,29.63
2023-02-25T02:46:25.579Z,27.98
2023-02-25T02:49:13.773Z,32.60
2023-02-25T02:51:57.274Z,27.60
2023-02-25T02:54:27.853Z,24.23
2023-02-25T02:56:57.238Z,21.10
2023-02-25T02:59:30.006Z,30.95
2023-02-25T03:04:30.924Z,21.88
2023-02-25T03:07:01.814Z,29.73
2023-02-25T03:09:42.833Z,27.67
2023-02-25T03:12:09.728Z,24.42
2023-02-25T03:14:37.309Z,30.23
2023-02-25T03:17:14.821Z,28.85
2023-02-25T03:19:47.217Z,23.95
2023-02-25T03:22:22.299Z,24.83
2023-02-25T03:25:00.777Z,24.63
2023-02-25T03:27:43.398Z,21.08
2023-02-25T03:33:48.122Z,29.40
2023-02-25T03:36:22.619Z,34.50
2023-02-25T03:38:57.203Z,34.75
2023-02-25T03:41:31.339Z,30.60
2023-02-25T03:43:59.825Z,24.45
2023-02-25T03:46:28.134Z,21.15
2023-02-25T03:48:56.419Z,35.50
2023-02-25T03:51:29.424Z,24.88
2023-02-25T03:53:56.947Z,30.38
2023-02-25T03:56:24.307Z,19.75
2023-02-25T03:58:51.405Z,25.48
2023-02-25T04:01:27.578Z,36.67
2023-02-25T04:03:54.382Z,27.90
2023-02-25T04:06:23.551Z,20.77
2023-02-25T04:08:51.227Z,24.98
2023-02-25T04:11:18.131Z,11.65
2023-02-25T04:13:44.941Z,28.02
2023-02-25T04:16:11.877Z,22.95
2023-02-25T04:18:38.663Z,23.27
2023-02-25T04:21:07.026Z,29.38
2023-02-25T04:23:35.157Z,18.65
2023-02-25T04:26:02.689Z,22.38
2023-02-25T04:28:29.848Z,19.98
2023-02-25T04:30:57.122Z,24.40
2023-02-25T04:33:24.000Z,21.10
2023-02-25T04:35:51.921Z,21.65
2023-02-25T04:38:18.951Z,22.52
2023-02-25T04:40:45.772Z,25.75
2023-02-25T04:43:12.579Z,29.65
2023-02-25T04:45:39.383Z,29.35
2023-02-25T04:48:06.391Z,28.65
2023-02-25T04:50:34.091Z,25.15
2023-02-25T04:53:02.364Z,24.27
2023-02-25T04:55:30.214Z,24.98
2023-02-25T04:57:57.404Z,20.95
2023-02-25T05:00:27.029Z,26.10
2023-02-25T05:02:53.994Z,23.98
2023-02-25T05:05:20.850Z,25.88
2023-02-25T05:07:47.916Z,24.05
2023-02-25T05:10:15.053Z,29.15
2023-02-25T05:12:42.383Z,21.95
2023-02-25T05:15:10.703Z,21.77
2023-02-25T05:17:37.562Z,22.05
2023-02-25T05:20:11.909Z,21.92
2023-02-25T05:22:39.346Z,17.70
2023-02-25T05:25:07.496Z,23.75
2023-02-25T05:27:34.778Z,19.95
2023-02-25T05:30:01.937Z,21.13
2023-02-25T05:32:30.914Z,25.92
2023-02-25T05:34:58.271Z,28.05
2023-02-25T05:37:29.783Z,29.27
2023-02-25T05:39:58.741Z,20.13
2023-02-25T05:42:25.464Z,29.42
2023-02-25T05:44:52.234Z,23.38
2023-02-25T05:47:19.162Z,27.75
2023-02-25T05:49:45.937Z,22.80
2023-02-25T05:52:14.454Z,39.20
2023-02-25T05:54:41.457Z,30.27
2023-02-25T05:57:08.294Z,21.95
2023-02-25T05:59:36.798Z,28.45
2023-02-25T06:02:03.873Z,23.83
2023-02-25T06:04:30.939Z,27.08
2023-02-25T06:06:57.692Z,26.90
2023-02-25T06:09:24.435Z,24.40
2023-02-25T06:11:51.224Z,26.20
2023-02-25T06:14:18.085Z,28.92
2023-02-25T06:16:45.039Z,32.67
2023-02-25T06:19:12.565Z,24.73
2023-02-25T06:21:39.694Z,19.60
2023-02-25T06:24:07.893Z,24.73
2023-02-25T06:26:35.499Z,29.83
2023-02-25T06:29:02.380Z,28.10
2023-02-25T06:31:29.220Z,31.50
2023-02-25T06:33:56.085Z,23.17
2023-02-25T06:36:23.376Z,28.17
2023-02-25T06:38:50.439Z,27.23
2023-02-25T06:41:20.354Z,16.20
2023-02-25T06:43:52.234Z,22.25
2023-02-25T06:46:24.890Z,20.20
2023-02-25T06:48:52.402Z,24.33
2023-02-25T06:51:19.295Z,24.83
2023-02-25T06:53:56.360Z,20.02
2023-02-25T06:56:23.684Z,25.58
2023-02-25T06:58:52.576Z,35.22
2023-02-25T07:01:19.481Z,23.48
2023-02-25T07:03:46.301Z,27.52
2023-02-25T07:06:15.965Z,33.13
2023-02-25T07:08:42.869Z,25.58
2023-02-25T07:11:21.783Z,21.85
2023-02-25T07:13:49.868Z,29.85
2023-02-25T07:16:17.480Z,26.15
2023-02-25T07:18:45.116Z,19.77
2023-02-25T07:21:12.493Z,26.88
2023-02-25T07:23:47.234Z,25.35
2023-02-25T07:26:15.187Z,28.35
2023-02-25T07:28:42.789Z,34.28
2023-02-25T07:31:15.840Z,34.08
2023-02-25T07:33:42.866Z,27.65
2023-02-25T07:36:10.914Z,21.83
2023-02-25T07:38:38.902Z,21.25
2023-02-25T07:41:06.478Z,19.45
2023-02-25T07:43:33.225Z,24.90
2023-02-25T07:46:00.357Z,28.00
2023-02-25T07:48:27.530Z,23.42
2023-02-25T07:50:55.317Z,24.38
2023-02-25T07:53:22.716Z,21.20
2023-02-25T07:55:50.516Z,31.83
2023-02-25T07:58:17.440Z,27.63
2023-02-25T08:00:45.811Z,27.98
2023-02-25T08:03:12.764Z,25.55
2023-02-25T08:05:39.635Z,29.75
2023-02-25T08:08:06.542Z,35.25
2023-02-25T08:10:33.535Z,23.10
2023-02-25T08:13:00.420Z,33.72
2023-02-25T08:15:27.535Z,25.70
2023-02-25T08:17:55.957Z,31.33
2023-02-25T08:20:22.920Z,25.67
2023-02-25T08:22:49.743Z,29.45
2023-02-25T08:25:16.614Z,23.58
2023-02-25T08:27:44.191Z,41.30
2023-02-25T08:30:11.512Z,20.77
2023-02-25T08:32:38.704Z,23.55
2023-02-25T08:35:05.861Z,32.75
2023-02-25T08:37:33.357Z,24.50
2023-02-25T08:40:00.168Z,23.75
2023-02-25T08:42:27.391Z,20.92
2023-02-25T08:44:54.163Z,34.55
2023-02-25T08:47:20.999Z,27.05
2023-02-25T08:49:47.740Z,19.67
2023-02-25T08:52:14.888Z,28.08
2023-02-25T08:54:41.917Z,21.80
2023-02-25T08:57:08.717Z,30.70
2023-02-25T08:59:38.262Z,33.55
2023-02-25T09:02:06.750Z,30.40
2023-02-25T09:04:34.435Z,23.15
2023-02-25T09:07:02.134Z,30.05
2023-02-25T09:09:29.325Z,29.42
2023-02-25T09:11:56.426Z,32.25
2023-02-25T09:14:23.278Z,29.50
2023-02-25T09:16:50.258Z,25.15
2023-02-25T09:19:18.357Z,24.67
2023-02-25T09:21:48.255Z,27.95
2023-02-25T09:24:16.635Z,30.08
2023-02-25T09:26:43.600Z,34.85
2023-02-25T09:29:10.608Z,22.17
2023-02-25T09:31:39.623Z,25.85
2023-02-25T09:34:10.599Z,24.52
2023-02-25T09:36:37.392Z,25.75
2023-02-25T09:39:07.438Z,29.90
2023-02-25T09:41:54.619Z,31.48
2023-02-25T09:44:30.263Z,34.97
2023-02-25T09:47:13.854Z,37.35
2023-02-25T09:50:21.662Z,34.20
2023-02-25T09:53:07.413Z,34.55
2023-02-25T09:55:38.141Z,34.28
2023-02-25T09:58:26.535Z,40.83
2023-02-25T10:01:05.299Z,32.03
2023-02-25T10:04:01.426Z,22.30
2023-02-25T10:06:53.217Z,31.38
2023-02-25T10:09:51.544Z,19.52
2023-02-25T10:12:32.941Z,26.00
2023-02-25T10:15:10.517Z,23.25
2023-02-25T10:18:00.164Z,24.27
2023-02-25T10:20:38.955Z,16.75
2023-02-25T10:23:18.101Z,26.08
2023-02-25T10:25:56.265Z,19.83
2023-02-25T10:28:24.192Z,24.80
2023-02-25T10:31:05.631Z,26.40
2023-02-25T10:33:36.948Z,21.15
2023-02-25T10:36:17.300Z,20.55
2023-02-25T10:38:47.842Z,20.92
2023-02-25T10:41:15.498Z,22.70
2023-02-25T10:43:43.682Z,20.73
2023-02-25T10:46:34.814Z,27.48
2023-02-25T10:49:25.374Z,22.08
2023-02-25T10:52:19.047Z,24.75
2023-02-25T10:54:53.168Z,22.83
2023-02-25T10:57:27.257Z,20.88
2023-02-25T11:00:05.029Z,20.88
2023-02-25T11:02:39.227Z,20.67
2023-02-25T11:05:06.196Z,32.20
2023-02-25T11:07:35.672Z,19.17
2023-02-25T11:10:17.301Z,27.00
2023-02-25T11:12:55.764Z,28.85
2023-02-25T11:15:41.477Z,25.38
2023-02-25T11:18:38.587Z,22.88
2023-02-25T11:21:13.048Z,28.50
2023-02-25T11:23:46.778Z,24.42
2023-02-25T11:26:30.318Z,23.60
2023-02-25T11:29:01.088Z,25.70
2023-02-25T11:31:35.942Z,23.05
2023-02-25T11:34:07.719Z,26.77
2023-02-25T11:36:37.731Z,29.35
2023-02-25T11:39:17.318Z,23.50
2023-02-25T11:41:46.402Z,20.05
2023-02-25T11:44:19.234Z,11.32
2023-02-25T11:49:29.442Z,7.15
2023-02-25T11:52:13.991Z,14.32
2023-02-25T11:55:08.016Z,11.35
2023-02-25T11:58:03.590Z,17.92
2023-02-25T12:00:54.651Z,14.13
2023-02-25T12:03:58.516Z,6.22
2023-02-25T12:06:48.831Z,14.50
2023-02-25T12:09:58.005Z,13.75
2023-02-25T12:12:27.911Z,10.23
2023-02-25T12:14:57.663Z,12.10
2023-02-25T12:17:49.508Z,10.70
2023-02-25T12:20:58.299Z,7.22
2023-02-25T12:23:30.741Z,8.40
2023-02-25T12:26:25.069Z,8.65
2023-02-25T12:29:09.575Z,9.93
2023-02-25T12:32:01.406Z,9.63
2023-02-25T12:34:46.376Z,8.20
2023-02-25T12:37:42.206Z,8.65
2023-02-25T12:40:19.886Z,4.97
2023-02-25T12:43:29.967Z,9.25
2023-02-25T12:46:34.263Z,8.38
2023-02-25T12:49:18.778Z,7.80
2023-02-25T12:52:13.277Z,6.40
2023-02-25T12:55:16.542Z,7.35
2023-02-25T12:58:09.018Z,42.60
2023-02-25T13:00:57.356Z,6.47
2023-02-25T13:03:35.383Z,7.72
2023-02-25T13:06:16.959Z,8.13
2023-02-25T13:08:52.909Z,6.78
2023-02-25T13:12:10.127Z,6.30
2023-02-25T13:15:01.631Z,8.00
2023-02-25T13:17:36.806Z,5.18
2023-02-25T13:20:22.914Z,6.65
2023-02-25T13:23:31.366Z,10.48
2023-02-25T13:26:00.943Z,15.55
2023-02-25T13:28:59.923Z,7.97
2023-02-25T13:31:54.178Z,4.53
2023-02-25T13:34:29.741Z,7.88
2023-02-25T13:37:23.549Z,6.00
2023-02-25T13:40:20.393Z,8.10
2023-02-25T13:43:28.909Z,14.95
2023-02-25T13:46:26.408Z,15.27
2023-02-25T13:49:27.784Z,10.10
2023-02-25T13:52:21.100Z,10.07
2023-02-25T13:57:43.393Z,7.20
2023-02-25T14:00:35.245Z,8.52
2023-02-25T14:03:26.940Z,12.20
2023-02-25T14:06:11.747Z,9.27
2023-02-25T14:09:06.718Z,10.45
2023-02-25T14:11:33.484Z,5.93
2023-02-25T14:14:30.345Z,8.65
2023-02-25T14:17:41.841Z,6.90
2023-02-25T14:20:44.319Z,9.32
2023-02-25T14:23:30.085Z,8.90
2023-02-25T14:26:35.290Z,6.00
2023-02-25T14:29:14.843Z,8.27
2023-02-25T14:32:05.871Z,11.60
2023-02-25T14:34:59.723Z,9.60
2023-02-25T14:37:34.498Z,8.20
2023-02-25T14:40:18.325Z,12.57
2023-02-25T14:43:06.913Z,12.25
2023-02-25T14:46:00.563Z,8.45
2023-02-25T14:48:54.614Z,18.95
2023-02-25T14:51:46.184Z,12.77
2023-02-25T14:54:44.331Z,11.95
2023-02-25T14:57:15.339Z,13.15
2023-02-25T14:59:53.725Z,8.48
2023-02-25T15:02:39.002Z,9.82
2023-02-25T15:05:19.975Z,16.90
2023-02-25T15:08:32.043Z,8.80
2023-02-25T15:11:07.827Z,8.82
2023-02-25T15:13:55.473Z,9.82
2023-02-25T15:16:35.599Z,6.70
2023-02-25T15:19:17.085Z,9.77
2023-02-25T15:21:49.243Z,8.43
2023-02-25T15:24:52.780Z,8.53
2023-02-25T15:27:56.629Z,9.40
2023-02-25T15:30:25.896Z,10.25
2023-02-25T15:33:24.930Z,12.20
2023-02-25T15:35:55.914Z,7.95
2023-02-25T15:38:44.004Z,10.52
2023-02-25T15:41:29.082Z,12.15
2023-02-25T15:44:00.736Z,10.23
2023-02-25T15:46:37.155Z,10.25
2023-02-25T15:49:06.107Z,8.48
2023-02-25T15:51:43.829Z,12.80
2023-02-25T15:54:31.336Z,7.00
2023-02-25T15:57:00.418Z,8.02
2023-02-25T15:59:47.750Z,6.53
2023-02-25T16:02:29.723Z,5.72
2023-02-25T16:05:10.149Z,8.45
2023-02-25T16:07:41.425Z,9.98
2023-02-25T16:10:41.666Z,8.18
2023-02-25T16:13:21.832Z,12.88
2023-02-25T16:15:53.692Z,7.60
2023-02-25T16:18:45.131Z,9.52
2023-02-25T16:21:21.587Z,6.63
2023-02-25T16:23:48.693Z,8.63
2023-02-25T16:26:29.126Z,15.48
2023-02-25T16:29:33.588Z,10.70
2023-02-25T16:32:00.423Z,9.50
2023-02-25T16:34:36.664Z,6.80
2023-02-25T16:37:24.727Z,7.15
2023-02-25T16:39:52.157Z,10.18
2023-02-25T16:42:21.340Z,9.73
2023-02-25T16:44:59.521Z,7.15
2023-02-25T16:47:36.621Z,3.78
2023-02-25T16:50:13.589Z,7.75
2023-02-25T16:52:47.787Z,5.03
2023-02-25T16:55:22.815Z,4.50
2023-02-25T16:58:18.484Z,9.40
2023-02-25T17:00:53.188Z,4.47
2023-02-25T17:03:21.282Z,6.82
2023-02-25T17:06:05.202Z,5.68
2023-02-25T17:08:32.517Z,3.47
2023-02-25T17:11:01.045Z,7.03
2023-02-25T17:13:41.738Z,9.68
2023-02-25T17:16:31.751Z,6.38
2023-02-25T17:19:04.017Z,8.00
2023-02-25T17:21:44.297Z,4.53
2023-02-25T17:24:18.218Z,6.28
2023-02-25T17:26:48.161Z,6.32
2023-02-25T17:29:16.703Z,6.95
2023-02-25T17:31:50.660Z,7.95
2023-02-25T17:34:29.702Z,4.20
2023-02-25T17:37:00.947Z,8.35
2023-02-25T17:39:29.695Z,5.55
2023-02-25T17:41:57.186Z,8.25
2023-02-25T17:44:39.234Z,6.30
2023-02-25T17:47:08.961Z,5.35
2023-02-25T17:49:37.413Z,7.57
2023-02-25T17:52:16.491Z,6.22
2023-02-25T17:54:48.114Z,5.32
2023-02-25T17:57:25.215Z,8.00
2023-02-25T18:00:00.437Z,5.35
2023-02-25T18:02:38.812Z,9.52
2023-02-25T18:05:22.273Z,7.80
2023-02-25T18:08:01.327Z,5.88
2023-02-25T18:10:31.328Z,5.38
2023-02-25T18:13:03.556Z,6.32
2023-02-25T18:15:34.605Z,6.15
2023-02-25T18:18:04.906Z,6.50
2023-02-25T18:20:36.287Z,12.50
2023-02-25T18:23:08.544Z,5.10
2023-02-25T18:25:36.611Z,8.45
2023-02-25T18:28:05.807Z,11.00
2023-02-25T18:30:33.521Z,5.78
2023-02-25T18:33:00.436Z,8.98
2023-02-25T18:35:29.493Z,8.23
2023-02-25T18:37:57.840Z,11.32
2023-02-25T18:40:39.023Z,9.63
2023-02-25T18:43:06.191Z,7.82
2023-02-25T18:45:34.400Z,12.63
2023-02-25T18:48:01.770Z,7.43
2023-02-25T18:50:32.579Z,9.27
2023-02-25T18:53:00.333Z,11.70
2023-02-25T18:55:29.921Z,10.52
2023-02-25T18:57:56.789Z,9.60
2023-02-25T19:00:27.339Z,12.02
2023-02-25T19:02:57.160Z,8.35
2023-02-25T19:05:25.719Z,8.23
2023-02-25T19:07:53.087Z,9.88
2023-02-25T19:10:31.127Z,9.00
2023-02-25T19:13:04.883Z,5.43
2023-02-25T19:15:35.151Z,8.75
2023-02-25T19:18:02.079Z,7.47
2023-02-25T19:20:29.128Z,9.95
2023-02-25T19:22:55.963Z,10.23
2023-02-25T19:25:26.028Z,12.25
2023-02-25T19:27:54.007Z,9.15
2023-02-25T19:30:24.881Z,8.60
2023-02-25T19:32:52.003Z,8.55
2023-02-25T19:35:19.156Z,8.27
2023-02-25T19:37:46.040Z,9.82
2023-02-25T19:40:15.519Z,9.25
2023-02-25T19:42:44.486Z,9.77
2023-02-25T19:45:17.120Z,10.10
2023-02-25T19:47:48.309Z,7.50
2023-02-25T19:50:17.251Z,10.80
2023-02-25T19:52:44.688Z,9.13
2023-02-25T19:55:15.031Z,10.70
2023-02-25T19:57:42.615Z,9.90
2023-02-25T20:00:18.654Z,12.98
2023-02-25T20:02:45.688Z,11.25
2023-02-25T20:05:13.038Z,16.38
2023-02-25T20:07:40.171Z,10.98
2023-02-25T20:10:13.123Z,14.48
2023-02-25T20:12:42.173Z,11.43
2023-02-25T20:15:11.789Z,11.90
2023-02-25T20:17:40.092Z,6.63
2023-02-25T20:20:11.202Z,17.98
2023-02-25T20:22:39.133Z,11.50
2023-02-25T20:25:08.016Z,14.55
2023-02-25T20:27:37.065Z,15.00
2023-02-25T20:30:06.634Z,8.52
2023-02-25T20:32:33.857Z,9.65
2023-02-25T20:35:01.164Z,7.68
2023-02-25T20:37:36.668Z,6.35
2023-02-25T20:40:08.363Z,6.72
2023-02-25T20:42:35.720Z,8.75
2023-02-25T20:45:03.052Z,9.50
2023-02-25T20:47:37.033Z,10.35
2023-02-25T20:50:07.118Z,10.30
2023-02-25T20:52:34.380Z,11.32
2023-02-25T20:55:01.433Z,10.68
2023-02-25T20:57:28.765Z,15.20
2023-02-25T20:59:55.643Z,13.30
2023-02-25T21:02:23.045Z,15.75
2023-02-25T21:04:50.629Z,15.80
2023-02-25T21:07:17.616Z,16.63
2023-02-25T21:09:44.490Z,14.48
2023-02-25T21:12:11.583Z,11.70
2023-02-25T21:14:38.558Z,13.20
2023-02-25T21:17:09.518Z,15.77
2023-02-25T21:19:38.786Z,16.20
2023-02-25T21:22:06.617Z,12.25
2023-02-25T21:24:33.737Z,8.05
2023-02-25T21:27:01.395Z,14.13
2023-02-25T21:29:28.384Z,12.85
2023-02-25T21:31:55.552Z,15.15
2023-02-25T21:34:22.575Z,13.05
2023-02-25T21:36:49.426Z,16.67
2023-02-25T21:39:16.403Z,14.10
2023-02-25T21:41:44.779Z,12.55
2023-02-25T21:44:12.648Z,14.45
2023-02-25T21:46:40.423Z,11.70
2023-02-25T21:49:07.300Z,10.55
2023-02-25T21:51:34.175Z,10.75
2023-02-25T21:54:02.503Z,14.23
2023-02-25T21:56:30.887Z,19.48
2023-02-25T21:59:02.897Z,12.95
2023-02-25T22:01:35.650Z,8.63
2023-02-25T22:06:30.184Z,13.10
2023-02-25T22:08:58.290Z,11.98
2023-02-25T22:11:28.475Z,10.45
2023-02-25T22:13:56.446Z,12.38
2023-02-25T22:16:23.837Z,9.45
2023-02-25T22:18:51.588Z,15.07
2023-02-25T22:21:25.142Z,10.80
2023-02-25T22:23:53.656Z,14.15
2023-02-25T22:26:23.889Z,14.18
2023-02-25T22:28:55.097Z,12.90
2023-02-25T22:31:22.281Z,14.43
2023-02-25T22:33:49.517Z,15.70
2023-02-25T22:36:18.202Z,8.65
2023-02-25T22:38:47.160Z,18.13
2023-02-25T22:41:20.073Z,11.93
2023-02-25T22:43:47.398Z,14.23
2023-02-25T22:46:29.625Z,11.85
2023-02-25T22:48:56.845Z,14.25
2023-02-25T22:51:25.365Z,15.57
2023-02-25T22:53:52.831Z,15.07
2023-02-25T22:56:19.748Z,14.60
2023-02-25T22:58:47.977Z,17.45
2023-02-25T23:01:16.867Z,13.60
2023-02-25T23:03:44.092Z,10.38
2023-02-25T23:06:12.683Z,11.10
2023-02-25T23:08:40.039Z,11.13
2023-02-25T23:11:20.982Z,13.80
2023-02-25T23:13:50.616Z,11.23
2023-02-25T23:16:20.151Z,16.95
2023-02-25T23:18:49.006Z,18.27
2023-02-25T23:21:21.160Z,18.65
2023-02-25T23:23:58.839Z,13.40
2023-02-25T23:26:29.238Z,7.40
2023-02-25T23:28:57.973Z,9.48
2023-02-25T23:31:36.936Z,15.73
2023-02-25T23:34:18.727Z,10.73
2023-02-25T23:36:46.148Z,11.68
2023-02-25T23:39:14.418Z,21.15
2023-02-25T23:41:41.805Z,15.20
2023-02-25T23:44:09.586Z,13.75
2023-02-25T23:46:37.383Z,14.40
2023-02-25T23:49:07.322Z,16.42
2023-02-25T23:51:35.671Z,13.48
2023-02-25T23:54:05.771Z,14.82
2023-02-25T23:56:34.121Z,12.15
2023-02-25T23:59:01.138Z,14.02
